sensor_id;sensor_type;location;lat;lon;timestamp;temperature;humidity
33739;DHT22;20063;51.730;11.110;2023-11-22T00:02:15;2.10;99.90
33739;DHT22;20063;51.730;11.110;2023-11-22T00:04:40;2.10;99.90
33739;DHT22;20063;51.730;11.110;2023-11-22T00:07:06;2.10;99.90
33739;DHT22;20063;51.730;11.110;2023-11-22T00:09:32;2.10;99.90
33739;DHT22;20063;51.730;11.110;2023-11-22T00:11:58;2.10;99.90
33739;DHT22;20063;51.730;11.110;2023-11-22T00:14:25;2.20;99.90
33739;DHT22;20063;51.730;11.110;2023-11-22T00:16:51;2.20;99.90
33739;DHT22;20063;51.730;11.110;2023-11-22T00:19:17;2.10;99.90
33739;DHT22;20063;51.730;11.110;2023-11-22T00:21:49;2.10;99.90
33739;DHT22;20063;51.730;11.110;2023-11-22T00:24:14;2.10;99.90
33739;DHT22;20063;51.730;11.110;2023-11-22T00:26:40;2.10;99.90
33739;DHT22;20063;51.730;11.110;2023-11-22T00:29:06;2.10;99.90
33739;DHT22;20063;51.730;11.110;2023-11-22T00:31:33;2.20;99.90
33739;DHT22;20063;51.730;11.110;2023-11-22T00:33:59;2.20;99.90
33739;DHT22;20063;51.730;11.110;2023-11-22T00:36:25;2.20;99.90
33739;DHT22;20063;51.730;11.110;2023-11-22T00:38:50;2.10;99.90
33739;DHT22;20063;51.730;11.110;2023-11-22T00:41:17;2.10;99.90
33739;DHT22;20063;51.730;11.110;2023-11-22T00:43:42;2.10;99.90
33739;DHT22;20063;51.730;11.110;2023-11-22T00:46:08;2.10;99.90
33739;DHT22;20063;51.730;11.110;2023-11-22T00:48:33;2.10;99.90
33739;DHT22;20063;51.730;11.110;2023-11-22T00:50:59;2.10;99.90
33739;DHT22;20063;51.730;11.110;2023-11-22T00:53:25;2.10;99.90
33739;DHT22;20063;51.730;11.110;2023-11-22T00:55:50;2.10;99.90
33739;DHT22;20063;51.730;11.110;2023-11-22T00:58:16;2.10;99.90
33739;DHT22;20063;51.730;11.110;2023-11-22T01:00:41;2.00;99.90
33739;DHT22;20063;51.730;11.110;2023-11-22T01:03:07;1.90;99.90
33739;DHT22;20063;51.730;11.110;2023-11-22T01:05:37;1.90;99.90
33739;DHT22;20063;51.730;11.110;2023-11-22T01:08:02;1.90;99.90
33739;DHT22;20063;51.730;11.110;2023-11-22T01:10:28;1.80;99.90
33739;DHT22;20063;51.730;11.110;2023-11-22T01:12:54;1.80;99.90
33739;DHT22;20063;51.730;11.110;2023-11-22T01:15:19;1.70;99.90
33739;DHT22;20063;51.730;11.110;2023-11-22T01:17:45;1.70;99.90
33739;DHT22;20063;51.730;11.110;2023-11-22T01:20:11;1.70;99.90
33739;DHT22;20063;51.730;11.110;2023-11-22T01:22:38;1.60;99.90
33739;DHT22;20063;51.730;11.110;2023-11-22T01:25:04;1.60;99.90
33739;DHT22;20063;51.730;11.110;2023-11-22T01:27:30;1.60;99.90
33739;DHT22;20063;51.730;11.110;2023-11-22T01:29:56;1.50;99.90
33739;DHT22;20063;51.730;11.110;2023-11-22T01:32:22;1.50;99.90
33739;DHT22;20063;51.730;11.110;2023-11-22T01:34:48;1.50;99.90
33739;DHT22;20063;51.730;11.110;2023-11-22T01:37:13;1.40;99.90
33739;DHT22;20063;51.730;11.110;2023-11-22T01:39:40;1.40;99.90
33739;DHT22;20063;51.730;11.110;2023-11-22T01:42:08;1.40;99.90
33739;DHT22;20063;51.730;11.110;2023-11-22T01:44:34;1.40;99.90
33739;DHT22;20063;51.730;11.110;2023-11-22T01:47:01;1.40;99.90
33739;DHT22;20063;51.730;11.110;2023-11-22T01:49:28;1.30;99.90
33739;DHT22;20063;51.730;11.110;2023-11-22T01:51:54;1.30;99.90
33739;DHT22;20063;51.730;11.110;2023-11-22T01:54:22;1.20;99.90
33739;DHT22;20063;51.730;11.110;2023-11-22T01:56:48;1.20;99.90
33739;DHT22;20063;51.730;11.110;2023-11-22T01:59:15;1.10;99.90
33739;DHT22;20063;51.730;11.110;2023-11-22T02:01:42;1.00;99.90
33739;DHT22;20063;51.730;11.110;2023-11-22T02:04:08;1.10;99.90
33739;DHT22;20063;51.730;11.110;2023-11-22T02:06:35;1.00;99.90
33739;DHT22;20063;51.730;11.110;2023-11-22T02:09:01;0.90;99.90
33739;DHT22;20063;51.730;11.110;2023-11-22T02:11:27;0.90;99.90
33739;DHT22;20063;51.730;11.110;2023-11-22T02:13:53;0.80;99.90
33739;DHT22;20063;51.730;11.110;2023-11-22T02:16:19;0.80;99.90
33739;DHT22;20063;51.730;11.110;2023-11-22T02:18:48;0.80;99.90
33739;DHT22;20063;51.730;11.110;2023-11-22T02:21:16;0.80;99.90
33739;DHT22;20063;51.730;11.110;2023-11-22T02:23:42;0.80;99.90
33739;DHT22;20063;51.730;11.110;2023-11-22T02:26:08;0.70;99.90
33739;DHT22;20063;51.730;11.110;2023-11-22T02:28:34;0.70;99.90
33739;DHT22;20063;51.730;11.110;2023-11-22T02:30:59;0.60;99.90
33739;DHT22;20063;51.730;11.110;2023-11-22T02:33:25;0.60;99.90
33739;DHT22;20063;51.730;11.110;2023-11-22T02:35:51;0.60;99.90
33739;DHT22;20063;51.730;11.110;2023-11-22T02:38:16;0.60;99.90
33739;DHT22;20063;51.730;11.110;2023-11-22T02:40:43;0.60;99.90
33739;DHT22;20063;51.730;11.110;2023-11-22T02:43:09;0.60;99.90
33739;DHT22;20063;51.730;11.110;2023-11-22T02:45:37;0.60;99.90
33739;DHT22;20063;51.730;11.110;2023-11-22T02:48:04;0.50;99.90
33739;DHT22;20063;51.730;11.110;2023-11-22T02:50:35;0.50;99.90
33739;DHT22;20063;51.730;11.110;2023-11-22T02:53:00;0.50;99.90
33739;DHT22;20063;51.730;11.110;2023-11-22T02:55:27;0.50;99.90
33739;DHT22;20063;51.730;11.110;2023-11-22T02:57:53;0.50;99.90
33739;DHT22;20063;51.730;11.110;2023-11-22T03:00:18;0.50;99.90
33739;DHT22;20063;51.730;11.110;2023-11-22T03:02:45;0.50;99.90
33739;DHT22;20063;51.730;11.110;2023-11-22T03:05:15;0.60;99.90
33739;DHT22;20063;51.730;11.110;2023-11-22T03:07:43;0.60;99.90
33739;DHT22;20063;51.730;11.110;2023-11-22T03:10:09;0.60;99.90
33739;DHT22;20063;51.730;11.110;2023-11-22T03:12:35;0.70;99.90
33739;DHT22;20063;51.730;11.110;2023-11-22T03:15:01;0.70;99.90
33739;DHT22;20063;51.730;11.110;2023-11-22T03:17:30;0.80;99.90
33739;DHT22;20063;51.730;11.110;2023-11-22T03:19:57;0.70;99.90
33739;DHT22;20063;51.730;11.110;2023-11-22T03:22:26;0.80;99.90
33739;DHT22;20063;51.730;11.110;2023-11-22T03:24:52;0.80;99.90
33739;DHT22;20063;51.730;11.110;2023-11-22T03:27:18;0.80;99.90
33739;DHT22;20063;51.730;11.110;2023-11-22T03:29:44;0.80;99.90
33739;DHT22;20063;51.730;11.110;2023-11-22T03:32:09;0.90;99.90
33739;DHT22;20063;51.730;11.110;2023-11-22T03:34:38;0.90;99.90
33739;DHT22;20063;51.730;11.110;2023-11-22T03:37:03;0.90;99.90
33739;DHT22;20063;51.730;11.110;2023-11-22T03:39:29;0.90;99.90
33739;DHT22;20063;51.730;11.110;2023-11-22T03:41:55;0.90;99.90
33739;DHT22;20063;51.730;11.110;2023-11-22T03:44:20;0.90;99.90
33739;DHT22;20063;51.730;11.110;2023-11-22T03:46:46;0.90;99.90
33739;DHT22;20063;51.730;11.110;2023-11-22T03:49:12;0.90;99.90
33739;DHT22;20063;51.730;11.110;2023-11-22T03:51:41;0.90;99.90
33739;DHT22;20063;51.730;11.110;2023-11-22T03:54:07;0.90;99.90
33739;DHT22;20063;51.730;11.110;2023-11-22T03:56:33;0.90;99.90
33739;DHT22;20063;51.730;11.110;2023-11-22T03:58:59;0.90;99.90
33739;DHT22;20063;51.730;11.110;2023-11-22T04:01:25;0.90;99.90
33739;DHT22;20063;51.730;11.110;2023-11-22T04:03:50;0.90;99.90
33739;DHT22;20063;51.730;11.110;2023-11-22T04:06:17;0.80;99.90
33739;DHT22;20063;51.730;11.110;2023-11-22T04:08:45;0.80;99.90
33739;DHT22;20063;51.730;11.110;2023-11-22T04:11:11;0.80;99.90
33739;DHT22;20063;51.730;11.110;2023-11-22T04:13:37;0.80;99.90
33739;DHT22;20063;51.730;11.110;2023-11-22T04:16:03;0.80;99.90
33739;DHT22;20063;51.730;11.110;2023-11-22T04:18:29;0.70;99.90
33739;DHT22;20063;51.730;11.110;2023-11-22T04:20:55;0.70;99.90
33739;DHT22;20063;51.730;11.110;2023-11-22T04:23:23;0.70;99.90
33739;DHT22;20063;51.730;11.110;2023-11-22T04:25:49;0.70;99.90
33739;DHT22;20063;51.730;11.110;2023-11-22T04:28:15;0.70;99.90
33739;DHT22;20063;51.730;11.110;2023-11-22T04:30:41;0.60;99.90
33739;DHT22;20063;51.730;11.110;2023-11-22T04:33:06;0.50;99.90
33739;DHT22;20063;51.730;11.110;2023-11-22T04:35:32;0.50;99.90
33739;DHT22;20063;51.730;11.110;2023-11-22T04:38:02;0.50;99.90
33739;DHT22;20063;51.730;11.110;2023-11-22T04:40:29;0.50;99.90
33739;DHT22;20063;51.730;11.110;2023-11-22T04:42:55;0.50;99.90
33739;DHT22;20063;51.730;11.110;2023-11-22T04:45:21;0.50;99.90
33739;DHT22;20063;51.730;11.110;2023-11-22T04:47:48;0.40;99.90
33739;DHT22;20063;51.730;11.110;2023-11-22T04:50:13;0.40;99.90
33739;DHT22;20063;51.730;11.110;2023-11-22T04:52:39;0.40;99.90
33739;DHT22;20063;51.730;11.110;2023-11-22T04:55:05;0.30;99.90
33739;DHT22;20063;51.730;11.110;2023-11-22T04:57:31;0.30;99.90
33739;DHT22;20063;51.730;11.110;2023-11-22T04:59:56;0.30;99.90
33739;DHT22;20063;51.730;11.110;2023-11-22T05:02:22;0.20;99.90
33739;DHT22;20063;51.730;11.110;2023-11-22T05:04:48;0.20;99.90
33739;DHT22;20063;51.730;11.110;2023-11-22T05:07:15;0.20;99.90
33739;DHT22;20063;51.730;11.110;2023-11-22T05:09:41;0.20;99.90
33739;DHT22;20063;51.730;11.110;2023-11-22T05:12:10;0.10;99.90
33739;DHT22;20063;51.730;11.110;2023-11-22T05:14:37;0.20;99.90
33739;DHT22;20063;51.730;11.110;2023-11-22T05:17:04;0.10;99.90
33739;DHT22;20063;51.730;11.110;2023-11-22T05:19:30;0.10;99.90
33739;DHT22;20063;51.730;11.110;2023-11-22T05:21:59;0.10;99.90
33739;DHT22;20063;51.730;11.110;2023-11-22T05:24:25;0.20;99.90
33739;DHT22;20063;51.730;11.110;2023-11-22T05:26:51;0.20;99.90
33739;DHT22;20063;51.730;11.110;2023-11-22T05:29:17;0.10;99.90
33739;DHT22;20063;51.730;11.110;2023-11-22T05:31:42;0.10;99.90
33739;DHT22;20063;51.730;11.110;2023-11-22T05:34:08;0.20;99.90
33739;DHT22;20063;51.730;11.110;2023-11-22T05:36:33;0.20;99.90
33739;DHT22;20063;51.730;11.110;2023-11-22T05:38:59;0.20;99.90
33739;DHT22;20063;51.730;11.110;2023-11-22T05:41:26;0.20;99.90
33739;DHT22;20063;51.730;11.110;2023-11-22T05:43:55;0.20;99.90
33739;DHT22;20063;51.730;11.110;2023-11-22T05:46:22;0.20;99.90
33739;DHT22;20063;51.730;11.110;2023-11-22T05:48:50;0.10;99.90
33739;DHT22;20063;51.730;11.110;2023-11-22T05:51:17;0.10;99.90
33739;DHT22;20063;51.730;11.110;2023-11-22T05:53:42;0.10;99.90
33739;DHT22;20063;51.730;11.110;2023-11-22T05:56:08;0.10;99.90
33739;DHT22;20063;51.730;11.110;2023-11-22T05:58:34;0.20;99.90
33739;DHT22;20063;51.730;11.110;2023-11-22T06:01:10;0.20;99.90
33739;DHT22;20063;51.730;11.110;2023-11-22T06:03:37;0.20;99.90
33739;DHT22;20063;51.730;11.110;2023-11-22T06:06:04;0.20;99.90
33739;DHT22;20063;51.730;11.110;2023-11-22T06:08:33;0.20;99.90
33739;DHT22;20063;51.730;11.110;2023-11-22T06:10:59;0.30;99.90
33739;DHT22;20063;51.730;11.110;2023-11-22T06:13:26;0.30;99.90
33739;DHT22;20063;51.730;11.110;2023-11-22T06:15:51;0.30;99.90
33739;DHT22;20063;51.730;11.110;2023-11-22T06:18:20;0.40;99.90
33739;DHT22;20063;51.730;11.110;2023-11-22T06:20:46;0.40;99.90
33739;DHT22;20063;51.730;11.110;2023-11-22T06:23:14;0.50;99.90
33739;DHT22;20063;51.730;11.110;2023-11-22T06:25:41;0.50;99.90
33739;DHT22;20063;51.730;11.110;2023-11-22T06:28:07;0.50;99.90
33739;DHT22;20063;51.730;11.110;2023-11-22T06:30:33;0.50;99.90
33739;DHT22;20063;51.730;11.110;2023-11-22T06:32:59;0.60;99.90
33739;DHT22;20063;51.730;11.110;2023-11-22T06:35:25;0.60;99.90
33739;DHT22;20063;51.730;11.110;2023-11-22T06:37:51;0.60;99.90
33739;DHT22;20063;51.730;11.110;2023-11-22T06:40:16;0.60;99.90
33739;DHT22;20063;51.730;11.110;2023-11-22T06:43:06;0.70;99.90
33739;DHT22;20063;51.730;11.110;2023-11-22T06:45:38;0.70;99.90
33739;DHT22;20063;51.730;11.110;2023-11-22T06:48:13;0.70;99.90
33739;DHT22;20063;51.730;11.110;2023-11-22T06:50:39;0.70;99.90
33739;DHT22;20063;51.730;11.110;2023-11-22T06:53:07;0.80;99.90
33739;DHT22;20063;51.730;11.110;2023-11-22T06:55:33;0.80;99.90
33739;DHT22;20063;51.730;11.110;2023-11-22T06:57:59;0.80;99.90
33739;DHT22;20063;51.730;11.110;2023-11-22T07:00:24;0.70;99.90
33739;DHT22;20063;51.730;11.110;2023-11-22T07:02:53;0.80;99.90
33739;DHT22;20063;51.730;11.110;2023-11-22T07:05:19;0.80;99.90
33739;DHT22;20063;51.730;11.110;2023-11-22T07:07:44;0.70;99.90
33739;DHT22;20063;51.730;11.110;2023-11-22T07:10:10;0.70;99.90
33739;DHT22;20063;51.730;11.110;2023-11-22T07:12:36;0.70;99.90
33739;DHT22;20063;51.730;11.110;2023-11-22T07:15:03;0.70;99.90
33739;DHT22;20063;51.730;11.110;2023-11-22T07:17:31;0.70;99.90
33739;DHT22;20063;51.730;11.110;2023-11-22T07:19:59;0.70;99.90
33739;DHT22;20063;51.730;11.110;2023-11-22T07:22:26;0.70;99.90
33739;DHT22;20063;51.730;11.110;2023-11-22T07:24:52;0.70;99.90
33739;DHT22;20063;51.730;11.110;2023-11-22T07:27:19;0.70;99.90
33739;DHT22;20063;51.730;11.110;2023-11-22T07:29:54;0.70;99.90
33739;DHT22;20063;51.730;11.110;2023-11-22T07:32:20;0.70;99.90
33739;DHT22;20063;51.730;11.110;2023-11-22T07:34:46;0.60;99.90
33739;DHT22;20063;51.730;11.110;2023-11-22T07:37:12;0.70;99.90
33739;DHT22;20063;51.730;11.110;2023-11-22T07:39:40;0.70;99.90
33739;DHT22;20063;51.730;11.110;2023-11-22T07:42:08;0.70;99.90
33739;DHT22;20063;51.730;11.110;2023-11-22T07:44:35;0.70;99.90
33739;DHT22;20063;51.730;11.110;2023-11-22T07:47:03;0.70;99.90
33739;DHT22;20063;51.730;11.110;2023-11-22T07:49:33;0.70;99.90
33739;DHT22;20063;51.730;11.110;2023-11-22T07:52:04;0.70;99.90
33739;DHT22;20063;51.730;11.110;2023-11-22T07:54:31;0.70;99.90
33739;DHT22;20063;51.730;11.110;2023-11-22T07:56:57;0.70;99.90
33739;DHT22;20063;51.730;11.110;2023-11-22T07:59:23;0.70;99.90
33739;DHT22;20063;51.730;11.110;2023-11-22T08:01:48;0.70;99.90
33739;DHT22;20063;51.730;11.110;2023-11-22T08:04:14;0.70;99.90
33739;DHT22;20063;51.730;11.110;2023-11-22T08:06:42;0.70;99.90
33739;DHT22;20063;51.730;11.110;2023-11-22T08:09:08;0.70;99.90
33739;DHT22;20063;51.730;11.110;2023-11-22T08:11:35;0.70;99.90
33739;DHT22;20063;51.730;11.110;2023-11-22T08:14:01;0.70;99.90
33739;DHT22;20063;51.730;11.110;2023-11-22T08:16:27;0.70;99.90
33739;DHT22;20063;51.730;11.110;2023-11-22T08:18:53;0.80;99.90
33739;DHT22;20063;51.730;11.110;2023-11-22T08:21:18;0.80;99.90
33739;DHT22;20063;51.730;11.110;2023-11-22T08:23:46;0.80;99.90
33739;DHT22;20063;51.730;11.110;2023-11-22T08:26:15;0.70;99.90
33739;DHT22;20063;51.730;11.110;2023-11-22T08:29:02;0.70;99.90
33739;DHT22;20063;51.730;11.110;2023-11-22T08:31:28;0.70;99.90
33739;DHT22;20063;51.730;11.110;2023-11-22T08:33:54;0.70;99.90
33739;DHT22;20063;51.730;11.110;2023-11-22T08:36:19;0.70;99.90
33739;DHT22;20063;51.730;11.110;2023-11-22T08:38:45;0.70;99.90
33739;DHT22;20063;51.730;11.110;2023-11-22T08:41:10;0.70;99.90
33739;DHT22;20063;51.730;11.110;2023-11-22T08:43:40;0.70;99.90
33739;DHT22;20063;51.730;11.110;2023-11-22T08:46:06;0.70;99.90
33739;DHT22;20063;51.730;11.110;2023-11-22T08:48:34;0.70;99.90
33739;DHT22;20063;51.730;11.110;2023-11-22T08:51:00;0.70;99.90
33739;DHT22;20063;51.730;11.110;2023-11-22T08:53:26;0.70;99.90
33739;DHT22;20063;51.730;11.110;2023-11-22T08:55:52;0.70;99.90
33739;DHT22;20063;51.730;11.110;2023-11-22T08:58:20;0.70;99.90
33739;DHT22;20063;51.730;11.110;2023-11-22T09:00:46;0.80;99.90
33739;DHT22;20063;51.730;11.110;2023-11-22T09:03:12;0.80;99.90
33739;DHT22;20063;51.730;11.110;2023-11-22T09:05:44;0.80;99.90
33739;DHT22;20063;51.730;11.110;2023-11-22T09:08:11;0.80;99.90
33739;DHT22;20063;51.730;11.110;2023-11-22T09:10:40;0.80;99.90
33739;DHT22;20063;51.730;11.110;2023-11-22T09:13:07;0.90;99.90
33739;DHT22;20063;51.730;11.110;2023-11-22T09:15:32;0.90;99.90
33739;DHT22;20063;51.730;11.110;2023-11-22T09:17:59;1.00;99.90
33739;DHT22;20063;51.730;11.110;2023-11-22T09:20:28;0.90;99.90
33739;DHT22;20063;51.730;11.110;2023-11-22T09:22:54;0.90;99.90
33739;DHT22;20063;51.730;11.110;2023-11-22T09:25:22;0.90;99.90
33739;DHT22;20063;51.730;11.110;2023-11-22T09:27:52;0.90;99.90
33739;DHT22;20063;51.730;11.110;2023-11-22T09:30:22;0.90;99.90
33739;DHT22;20063;51.730;11.110;2023-11-22T09:33:10;0.90;99.90
33739;DHT22;20063;51.730;11.110;2023-11-22T09:35:37;0.90;99.90
33739;DHT22;20063;51.730;11.110;2023-11-22T09:38:05;0.90;99.90
33739;DHT22;20063;51.730;11.110;2023-11-22T09:40:40;0.90;99.90
33739;DHT22;20063;51.730;11.110;2023-11-22T09:43:06;0.90;99.90
33739;DHT22;20063;51.730;11.110;2023-11-22T09:45:32;1.00;99.90
33739;DHT22;20063;51.730;11.110;2023-11-22T09:47:59;1.00;99.90
33739;DHT22;20063;51.730;11.110;2023-11-22T09:50:43;1.00;99.90
33739;DHT22;20063;51.730;11.110;2023-11-22T09:53:28;1.00;99.90
33739;DHT22;20063;51.730;11.110;2023-11-22T09:55:57;1.00;99.90
33739;DHT22;20063;51.730;11.110;2023-11-22T09:58:23;1.00;99.90
33739;DHT22;20063;51.730;11.110;2023-11-22T10:00:50;1.00;99.90
33739;DHT22;20063;51.730;11.110;2023-11-22T10:03:18;0.90;99.90
33739;DHT22;20063;51.730;11.110;2023-11-22T10:05:45;0.90;99.90
33739;DHT22;20063;51.730;11.110;2023-11-22T10:08:11;0.80;99.90
33739;DHT22;20063;51.730;11.110;2023-11-22T10:10:37;0.80;99.90
33739;DHT22;20063;51.730;11.110;2023-11-22T10:13:03;0.70;99.90
33739;DHT22;20063;51.730;11.110;2023-11-22T10:15:29;0.90;99.90
33739;DHT22;20063;51.730;11.110;2023-11-22T10:17:56;0.90;99.90
33739;DHT22;20063;51.730;11.110;2023-11-22T10:20:38;0.90;99.90
33739;DHT22;20063;51.730;11.110;2023-11-22T10:23:11;0.90;99.90
33739;DHT22;20063;51.730;11.110;2023-11-22T10:25:44;1.00;99.90
33739;DHT22;20063;51.730;11.110;2023-11-22T10:28:10;1.00;99.90
33739;DHT22;20063;51.730;11.110;2023-11-22T10:30:36;1.10;99.90
33739;DHT22;20063;51.730;11.110;2023-11-22T10:33:04;1.10;99.90
33739;DHT22;20063;51.730;11.110;2023-11-22T10:35:30;1.10;99.90
33739;DHT22;20063;51.730;11.110;2023-11-22T10:37:56;1.10;99.90
33739;DHT22;20063;51.730;11.110;2023-11-22T10:40:25;1.10;99.90
33739;DHT22;20063;51.730;11.110;2023-11-22T10:42:51;1.20;99.90
33739;DHT22;20063;51.730;11.110;2023-11-22T10:45:20;1.20;99.90
33739;DHT22;20063;51.730;11.110;2023-11-22T10:47:47;1.20;99.90
33739;DHT22;20063;51.730;11.110;2023-11-22T10:50:14;1.20;99.90
33739;DHT22;20063;51.730;11.110;2023-11-22T10:52:41;1.10;99.90
33739;DHT22;20063;51.730;11.110;2023-11-22T10:55:12;1.10;99.90
33739;DHT22;20063;51.730;11.110;2023-11-22T10:57:45;1.10;99.90
33739;DHT22;20063;51.730;11.110;2023-11-22T11:00:15;1.10;99.90
33739;DHT22;20063;51.730;11.110;2023-11-22T11:02:44;1.10;99.90
33739;DHT22;20063;51.730;11.110;2023-11-22T11:05:21;1.20;99.90
33739;DHT22;20063;51.730;11.110;2023-11-22T11:08:06;1.20;99.90
33739;DHT22;20063;51.730;11.110;2023-11-22T11:10:39;1.20;99.90
33739;DHT22;20063;51.730;11.110;2023-11-22T11:13:06;1.20;99.90
33739;DHT22;20063;51.730;11.110;2023-11-22T11:15:36;1.20;99.90
33739;DHT22;20063;51.730;11.110;2023-11-22T11:18:15;1.20;99.90
33739;DHT22;20063;51.730;11.110;2023-11-22T11:20:57;1.20;99.90
33739;DHT22;20063;51.730;11.110;2023-11-22T11:23:26;1.10;99.90
33739;DHT22;20063;51.730;11.110;2023-11-22T11:25:56;1.10;99.90
33739;DHT22;20063;51.730;11.110;2023-11-22T11:28:23;1.00;99.90
33739;DHT22;20063;51.730;11.110;2023-11-22T11:30:53;1.10;99.90
33739;DHT22;20063;51.730;11.110;2023-11-22T11:33:33;1.00;99.90
33739;DHT22;20063;51.730;11.110;2023-11-22T11:36:00;1.00;99.90
33739;DHT22;20063;51.730;11.110;2023-11-22T11:38:35;1.00;99.90
33739;DHT22;20063;51.730;11.110;2023-11-22T11:41:10;1.00;99.90
33739;DHT22;20063;51.730;11.110;2023-11-22T11:43:43;1.00;99.90
33739;DHT22;20063;51.730;11.110;2023-11-22T11:46:11;1.00;99.90
33739;DHT22;20063;51.730;11.110;2023-11-22T11:48:37;1.10;99.90
33739;DHT22;20063;51.730;11.110;2023-11-22T11:51:03;1.00;99.90
33739;DHT22;20063;51.730;11.110;2023-11-22T11:53:29;1.00;99.90
33739;DHT22;20063;51.730;11.110;2023-11-22T11:55:58;1.10;99.90
33739;DHT22;20063;51.730;11.110;2023-11-22T11:58:24;1.00;99.90
33739;DHT22;20063;51.730;11.110;2023-11-22T12:00:54;1.00;99.90
33739;DHT22;20063;51.730;11.110;2023-11-22T12:03:20;1.10;99.90
33739;DHT22;20063;51.730;11.110;2023-11-22T12:05:48;1.10;99.90
33739;DHT22;20063;51.730;11.110;2023-11-22T12:08:20;1.10;99.90
33739;DHT22;20063;51.730;11.110;2023-11-22T12:10:46;1.10;99.90
33739;DHT22;20063;51.730;11.110;2023-11-22T12:13:20;1.20;99.90
33739;DHT22;20063;51.730;11.110;2023-11-22T12:15:48;1.20;99.90
33739;DHT22;20063;51.730;11.110;2023-11-22T12:18:14;1.20;99.90
33739;DHT22;20063;51.730;11.110;2023-11-22T12:20:39;1.40;99.90
33739;DHT22;20063;51.730;11.110;2023-11-22T12:23:05;1.40;99.90
33739;DHT22;20063;51.730;11.110;2023-11-22T12:25:32;1.50;99.90
33739;DHT22;20063;51.730;11.110;2023-11-22T12:27:58;1.50;99.90
33739;DHT22;20063;51.730;11.110;2023-11-22T12:30:34;1.50;99.90
33739;DHT22;20063;51.730;11.110;2023-11-22T12:33:10;1.50;99.90
33739;DHT22;20063;51.730;11.110;2023-11-22T12:35:38;1.50;99.90
33739;DHT22;20063;51.730;11.110;2023-11-22T12:38:06;1.50;99.90
33739;DHT22;20063;51.730;11.110;2023-11-22T12:40:32;1.60;99.90
33739;DHT22;20063;51.730;11.110;2023-11-22T12:42:59;1.60;99.90
33739;DHT22;20063;51.730;11.110;2023-11-22T12:45:26;1.60;99.90
33739;DHT22;20063;51.730;11.110;2023-11-22T12:47:54;1.60;99.90
33739;DHT22;20063;51.730;11.110;2023-11-22T12:50:37;1.60;99.90
33739;DHT22;20063;51.730;11.110;2023-11-22T12:53:12;1.70;99.90
33739;DHT22;20063;51.730;11.110;2023-11-22T12:55:42;1.60;99.90
33739;DHT22;20063;51.730;11.110;2023-11-22T12:58:15;1.60;99.90
33739;DHT22;20063;51.730;11.110;2023-11-22T13:00:43;1.60;99.90
33739;DHT22;20063;51.730;11.110;2023-11-22T13:03:09;1.60;99.90
33739;DHT22;20063;51.730;11.110;2023-11-22T13:05:36;1.60;99.90
33739;DHT22;20063;51.730;11.110;2023-11-22T13:08:03;1.70;99.90
33739;DHT22;20063;51.730;11.110;2023-11-22T13:10:31;1.70;99.90
33739;DHT22;20063;51.730;11.110;2023-11-22T13:12:58;1.70;99.90
33739;DHT22;20063;51.730;11.110;2023-11-22T13:15:24;1.70;99.90
33739;DHT22;20063;51.730;11.110;2023-11-22T13:17:52;1.80;99.90
33739;DHT22;20063;51.730;11.110;2023-11-22T13:20:27;1.80;99.90
33739;DHT22;20063;51.730;11.110;2023-11-22T13:22:55;1.80;99.90
33739;DHT22;20063;51.730;11.110;2023-11-22T13:25:21;1.80;99.90
33739;DHT22;20063;51.730;11.110;2023-11-22T13:27:50;1.80;99.90
33739;DHT22;20063;51.730;11.110;2023-11-22T13:30:17;1.80;99.90
33739;DHT22;20063;51.730;11.110;2023-11-22T13:32:46;1.80;99.90
33739;DHT22;20063;51.730;11.110;2023-11-22T13:35:12;1.80;99.90
33739;DHT22;20063;51.730;11.110;2023-11-22T13:37:47;1.80;99.90
33739;DHT22;20063;51.730;11.110;2023-11-22T13:40:16;1.80;99.90
33739;DHT22;20063;51.730;11.110;2023-11-22T13:42:47;1.80;99.90
33739;DHT22;20063;51.730;11.110;2023-11-22T13:45:14;1.70;99.90
33739;DHT22;20063;51.730;11.110;2023-11-22T13:47:47;1.70;99.90
33739;DHT22;20063;51.730;11.110;2023-11-22T13:50:17;1.70;99.90
33739;DHT22;20063;51.730;11.110;2023-11-22T13:52:53;1.70;99.90
33739;DHT22;20063;51.730;11.110;2023-11-22T13:55:19;1.70;99.90
33739;DHT22;20063;51.730;11.110;2023-11-22T13:57:59;1.70;99.90
33739;DHT22;20063;51.730;11.110;2023-11-22T14:00:26;1.70;99.90
33739;DHT22;20063;51.730;11.110;2023-11-22T14:02:56;1.80;99.90
33739;DHT22;20063;51.730;11.110;2023-11-22T14:05:23;1.70;99.90
33739;DHT22;20063;51.730;11.110;2023-11-22T14:07:49;1.70;99.90
33739;DHT22;20063;51.730;11.110;2023-11-22T14:10:17;1.70;99.90
33739;DHT22;20063;51.730;11.110;2023-11-22T14:12:45;1.70;99.90
33739;DHT22;20063;51.730;11.110;2023-11-22T14:15:14;1.70;99.90
33739;DHT22;20063;51.730;11.110;2023-11-22T14:17:40;1.70;99.90
33739;DHT22;20063;51.730;11.110;2023-11-22T14:20:11;1.70;99.90
33739;DHT22;20063;51.730;11.110;2023-11-22T14:22:39;1.60;99.90
33739;DHT22;20063;51.730;11.110;2023-11-22T14:25:06;1.60;99.90
33739;DHT22;20063;51.730;11.110;2023-11-22T14:27:41;1.70;99.90
33739;DHT22;20063;51.730;11.110;2023-11-22T14:30:07;1.60;99.90
33739;DHT22;20063;51.730;11.110;2023-11-22T14:32:34;1.70;99.90
33739;DHT22;20063;51.730;11.110;2023-11-22T14:35:04;1.60;99.90
33739;DHT22;20063;51.730;11.110;2023-11-22T14:37:33;1.60;99.90
33739;DHT22;20063;51.730;11.110;2023-11-22T14:39:59;1.50;99.90
33739;DHT22;20063;51.730;11.110;2023-11-22T14:42:25;1.50;99.90
33739;DHT22;20063;51.730;11.110;2023-11-22T14:44:51;1.60;99.90
33739;DHT22;20063;51.730;11.110;2023-11-22T14:47:17;1.50;99.90
33739;DHT22;20063;51.730;11.110;2023-11-22T14:49:52;1.50;99.90
33739;DHT22;20063;51.730;11.110;2023-11-22T14:52:19;1.60;99.90
33739;DHT22;20063;51.730;11.110;2023-11-22T14:54:46;1.60;99.90
33739;DHT22;20063;51.730;11.110;2023-11-22T14:57:14;1.60;99.90
33739;DHT22;20063;51.730;11.110;2023-11-22T14:59:43;1.60;99.90
33739;DHT22;20063;51.730;11.110;2023-11-22T15:02:12;1.60;99.90
33739;DHT22;20063;51.730;11.110;2023-11-22T15:04:39;1.50;99.90
33739;DHT22;20063;51.730;11.110;2023-11-22T15:07:04;1.60;99.90
33739;DHT22;20063;51.730;11.110;2023-11-22T15:09:33;1.60;99.90
33739;DHT22;20063;51.730;11.110;2023-11-22T15:12:00;1.60;99.90
33739;DHT22;20063;51.730;11.110;2023-11-22T15:14:33;1.60;99.90
33739;DHT22;20063;51.730;11.110;2023-11-22T15:16:59;1.60;99.90
33739;DHT22;20063;51.730;11.110;2023-11-22T15:19:30;1.60;99.90
33739;DHT22;20063;51.730;11.110;2023-11-22T15:21:56;1.50;99.90
33739;DHT22;20063;51.730;11.110;2023-11-22T15:24:21;1.40;99.90
33739;DHT22;20063;51.730;11.110;2023-11-22T15:26:48;1.40;99.90
33739;DHT22;20063;51.730;11.110;2023-11-22T15:29:14;1.40;99.90
33739;DHT22;20063;51.730;11.110;2023-11-22T15:31:43;1.30;99.90
33739;DHT22;20063;51.730;11.110;2023-11-22T15:34:09;1.30;99.90